createdAt,value
2019-05-12T00:05:08.992Z,27.8
2019-05-12T00:08:07.671Z,27.9
2019-05-12T00:11:02.718Z,27.9
2019-05-12T00:13:59.586Z,27.9
2019-05-12T00:19:53.725Z,28
2019-05-12T00:22:50.625Z,28
2019-05-12T00:25:48.086Z,28
2019-05-12T00:28:44.645Z,28
2019-05-12T00:31:41.907Z,28.1
2019-05-12T00:34:38.648Z,28.1
2019-05-12T00:40:32.808Z,28
2019-05-12T00:43:29.697Z,27.9
2019-05-12T00:46:27.769Z,27.9
2019-05-12T00:52:20.794Z,27.7
2019-05-12T00:55:18.391Z,27.7
2019-05-12T00:58:14.765Z,27.8
2019-05-12T01:01:11.642Z,27.8
2019-05-12T01:04:09.114Z,27.8
2019-05-12T01:07:05.736Z,27.8
2019-05-12T01:10:04.727Z,27.7
2019-05-12T01:12:59.643Z,27.7
2019-05-12T01:15:58.643Z,27.7
2019-05-12T01:18:53.677Z,27.7
2019-05-12T01:21:50.748Z,27.6
2019-05-12T01:24:48.293Z,27.7
2019-05-12T01:27:44.764Z,27.6
2019-05-12T01:30:41.774Z,27.6
2019-05-12T01:36:38.029Z,27.5
2019-05-12T01:39:32.798Z,27.4
2019-05-12T01:42:29.860Z,27.4
2019-05-12T01:45:28.686Z,27.4
2019-05-12T01:48:23.793Z,27.4
2019-05-12T01:57:14.910Z,27.2
2019-05-12T02:00:11.726Z,27.1
2019-05-12T02:03:09.392Z,27
2019-05-12T02:06:08.238Z,27
2019-05-12T02:09:02.848Z,27
2019-05-12T02:11:59.777Z,27
2019-05-12T02:14:58.875Z,27
2019-05-12T02:17:53.817Z,27
2019-05-12T02:20:50.948Z,27
2019-05-12T02:23:47.915Z,27
2019-05-12T02:29:41.873Z,27
2019-05-12T02:32:48.288Z,27
2019-05-12T02:35:35.947Z,27
2019-05-12T02:38:33.351Z,27
2019-05-12T02:41:30.050Z,27.1
2019-05-12T02:44:26.851Z,27
2019-05-12T02:47:24.280Z,26.9
2019-05-12T02:50:20.832Z,26.9
2019-05-12T02:53:17.903Z,26.8
2019-05-12T02:56:15.215Z,26.9
2019-05-12T02:59:11.964Z,26.9
2019-05-12T03:02:08.830Z,26.9
2019-05-12T03:05:05.939Z,26.9
2019-05-12T03:08:04.795Z,27
2019-05-12T03:13:57.011Z,27
2019-05-12T03:19:50.970Z,27
2019-05-12T03:22:47.870Z,26.9
2019-05-12T03:25:45.643Z,26.8
2019-05-12T03:28:44.536Z,26.7
2019-05-12T03:31:40.901Z,26.6
2019-05-12T03:34:38.098Z,26.6
2019-05-12T03:40:29.968Z,26.4
2019-05-12T03:43:26.892Z,26.3
2019-05-12T03:49:24.162Z,26.3
2019-05-12T03:55:30.014Z,26.3
2019-05-12T03:58:14.299Z,26.3
2019-05-12T04:01:08.981Z,26.4
2019-05-12T04:07:05.084Z,26.4
2019-05-12T04:15:55.627Z,26.5
2019-05-12T04:18:51.193Z,26.6
2019-05-12T04:21:48.033Z,26.6
2019-05-12T04:24:45.045Z,26.6
2019-05-12T04:27:44.669Z,26.6
2019-05-12T04:33:36.042Z,26.7
2019-05-12T04:36:35.460Z,26.7
2019-05-12T04:39:30.066Z,26.7
2019-05-12T04:42:26.959Z,26.7
2019-05-12T04:48:21.634Z,26.6
2019-05-12T04:51:17.977Z,26.7
2019-05-12T04:54:15.549Z,26.7
2019-05-12T04:57:14.867Z,26.8
2019-05-12T05:03:06.319Z,26.8
2019-05-12T05:09:00.080Z,26.9
2019-05-12T05:26:43.559Z,26.9
2019-05-12T05:29:39.042Z,26.8
2019-05-12T05:50:23.143Z,26.8
2019-05-12T05:59:09.322Z,26.6
2019-05-12T06:16:51.241Z,26.6
2019-05-12T06:19:48.107Z,26.6
2019-05-12T06:22:48.512Z,26.6
2019-05-12T06:28:41.117Z,26.7
2019-05-12T06:34:34.256Z,26.8
2019-05-12T06:46:23.553Z,26.9
2019-05-12T06:49:18.129Z,26.9
2019-05-12T06:58:09.371Z,27.1
2019-05-12T07:01:10.339Z,27.1
2019-05-12T07:04:06.339Z,27.1
2019-05-12T07:07:00.775Z,27.2
2019-05-12T07:10:07.820Z,27.2
2019-05-12T07:30:36.285Z,27.4
2019-05-12T07:33:41.301Z,27.3
2019-05-12T07:36:30.297Z,27.3
2019-05-12T07:39:27.735Z,27.3
2019-05-12T07:42:31.068Z,27.3
2019-05-12T07:48:18.300Z,27.3
2019-05-12T07:51:15.191Z,27.3
2019-05-12T07:54:14.223Z,27.4
2019-05-12T07:57:17.260Z,27.4
2019-05-12T08:00:11.262Z,27.3
2019-05-12T08:03:06.014Z,27.3
2019-05-12T08:08:58.941Z,27.2
2019-05-12T08:11:54.220Z,27.2
2019-05-12T08:17:49.188Z,27.4
2019-05-12T09:55:10.098Z,27.4
2019-05-12T10:04:00.499Z,27.4
2019-05-12T10:12:53.467Z,27.5
2019-05-12T10:15:48.459Z,27.5
2019-05-12T10:21:43.967Z,27.4
2019-05-12T10:30:34.076Z,27.4
2019-05-12T10:39:24.785Z,27.4
2019-05-12T10:42:21.490Z,27.4
2019-05-12T10:45:20.308Z,27.4
2019-05-12T10:51:12.522Z,27.5
2019-05-12T10:54:13.014Z,27.5
2019-05-12T10:57:06.591Z,27.5
2019-05-12T11:00:04.100Z,27.4
2019-05-12T11:03:01.406Z,27.4
2019-05-12T11:06:02.322Z,27.4
2019-05-12T11:08:54.562Z,27.4
2019-05-12T11:11:53.913Z,27.4
2019-05-12T11:14:48.630Z,27.4
2019-05-12T11:32:34.602Z,27.3
2019-05-12T11:35:27.583Z,27.3
2019-05-12T11:44:18.669Z,27.2
2019-05-12T11:47:23.778Z,27.2
2019-05-12T11:50:13.187Z,27.1
2019-05-12T12:02:00.763Z,27.2
2019-05-12T12:04:57.585Z,27
2019-05-12T12:07:56.113Z,27
2019-05-12T12:10:53.889Z,27
2019-05-12T12:13:48.656Z,26.9
2019-05-12T12:16:49.906Z,27
2019-05-12T12:19:46.313Z,27
2019-05-12T12:25:36.661Z,27
2019-05-12T12:28:34.390Z,26.9
2019-05-12T12:31:35.406Z,26.9
2019-05-12T12:37:25.694Z,26.8
2019-05-12T12:49:13.898Z,26.9
2019-05-12T12:52:09.678Z,26.9
2019-05-12T12:55:08.401Z,26.8
2019-05-12T13:03:59.172Z,26.8
2019-05-12T13:09:54.839Z,26.9
2019-05-12T13:15:45.724Z,26.8
2019-05-12T13:18:43.473Z,26.8
2019-05-12T13:27:36.656Z,26.7
2019-05-12T13:30:43.448Z,26.8
2019-05-12T13:33:27.724Z,26.8
2019-05-12T13:36:29.342Z,26.8
2019-05-12T13:39:24.091Z,26.8
2019-05-12T13:45:16.406Z,26.8
2019-05-12T13:48:15.652Z,26.8
2019-05-12T13:51:13.115Z,26.8
2019-05-12T14:00:06.244Z,26.8
2019-05-12T14:03:04.433Z,26.8
2019-05-12T14:05:55.272Z,26.8
2019-05-12T14:08:53.756Z,26.8
2019-05-12T14:14:46.058Z,26.7
2019-05-12T14:17:43.487Z,26.7
2019-05-12T14:20:39.833Z,26.7
2019-05-12T14:23:36.761Z,26.7
2019-05-12T14:26:33.818Z,26.6
2019-05-12T14:32:27.856Z,26.7
2019-05-12T14:47:12.858Z,26.7
2019-05-12T15:04:54.921Z,26.6
2019-05-12T15:07:56.064Z,26.6
2019-05-12T15:10:49.157Z,26.5
2019-05-12T15:13:45.907Z,26.6
2019-05-12T15:16:44.730Z,26.6
2019-05-12T15:19:39.827Z,26.6
2019-05-12T15:22:36.894Z,26.6
2019-05-12T15:25:35.287Z,26.6
2019-05-12T15:28:30.900Z,26.6
2019-05-12T15:31:27.833Z,26.6
2019-05-12T15:34:24.994Z,26.6
2019-05-12T15:37:23.749Z,26.5
2019-05-12T15:40:18.920Z,26.5
2019-05-12T15:43:15.888Z,26.5
2019-05-12T15:46:13.367Z,26.5
2019-05-12T15:49:09.913Z,26.6
2019-05-12T15:52:06.985Z,26.6
2019-05-12T15:55:04.653Z,26.7
2019-05-12T16:00:58.233Z,26.6
2019-05-12T16:03:54.891Z,26.6
2019-05-12T16:06:55.311Z,26.6
2019-05-12T16:12:46.130Z,26.6
2019-05-12T16:15:43.790Z,26.6
2019-05-12T16:18:40.386Z,26.6
2019-05-12T16:21:36.926Z,26.5
2019-05-12T16:24:34.229Z,26.6
2019-05-12T16:27:33.618Z,26.6
2019-05-12T16:33:24.976Z,26.6
2019-05-12T16:36:21.964Z,26.6
2019-05-12T16:39:18.985Z,26.6
2019-05-12T16:42:15.938Z,26.6
2019-05-12T16:45:14.162Z,26.5
2019-05-12T16:48:25.543Z,26.6
2019-05-12T16:51:07.045Z,26.6
2019-05-12T17:00:03.079Z,26.7
2019-05-12T17:02:57.877Z,26.6
2019-05-12T17:05:55.614Z,26.6
2019-05-12T17:08:48.970Z,26.6
2019-05-12T17:11:52.325Z,26.6
2019-05-12T17:14:48.153Z,26.6
2019-05-12T17:17:40.303Z,26.6
2019-05-12T17:20:40.830Z,26.6
2019-05-12T17:26:33.284Z,26.6
2019-05-12T17:29:28.136Z,26.7
2019-05-12T17:32:25.119Z,26.7
2019-05-12T17:35:26.640Z,26.7
2019-05-12T17:38:20.240Z,26.7
2019-05-12T17:41:17.973Z,26.7
2019-05-12T17:44:13.636Z,26.8
2019-05-12T17:47:12.778Z,26.7
2019-05-12T17:50:10.171Z,26.8
2019-05-12T17:56:01.185Z,26.7
2019-05-12T17:58:58.084Z,26.8
2019-05-12T18:04:53.454Z,26.9
2019-05-12T18:07:50.809Z,26.9
2019-05-12T18:10:47.913Z,26.8
2019-05-12T18:13:43.158Z,26.8
2019-05-12T18:16:43.226Z,26.8
2019-05-12T18:19:37.265Z,26.8
2019-05-12T18:22:39.231Z,26.8
2019-05-12T18:28:29.507Z,26.8
2019-05-12T18:31:25.577Z,26.8
2019-05-12T18:34:22.228Z,27
2019-05-12T18:37:19.198Z,27
2019-05-12T18:40:16.458Z,27
2019-05-12T18:43:14.127Z,27
2019-05-12T18:49:12.165Z,26.9
2019-05-12T18:52:04.173Z,27
2019-05-12T18:55:01.338Z,27
2019-05-12T18:57:58.189Z,26.9
2019-05-12T19:00:55.254Z,26.9
2019-05-12T19:03:54.567Z,26.9
2019-05-12T19:06:49.252Z,27
2019-05-12T19:09:47.225Z,27
2019-05-12T19:12:44.037Z,27.1
2019-05-12T19:15:40.255Z,27.1
2019-05-12T19:18:37.588Z,27.1
2019-05-12T19:24:33.621Z,27.1
2019-05-12T19:27:28.268Z,27.1
2019-05-12T19:33:22.273Z,27.1
2019-05-12T19:39:16.465Z,27
2019-05-12T19:45:15.838Z,27.2
2019-05-12T19:48:07.241Z,27.1
2019-05-12T19:51:19.783Z,27.1
2019-05-12T19:54:03.466Z,27.1
2019-05-12T19:56:58.499Z,27.1
2019-05-12T19:59:55.919Z,27.1
2019-05-12T20:05:49.609Z,27.1
2019-05-12T20:08:46.285Z,27.1
2019-05-12T20:11:43.568Z,27
2019-05-12T20:14:40.293Z,27.1
2019-05-12T20:17:37.391Z,27.2
2019-05-12T20:20:39.043Z,27.2
2019-05-12T20:23:33.339Z,27.1
2019-05-12T20:26:28.282Z,27.1
2019-05-12T20:29:33.135Z,27.1
2019-05-12T20:32:24.049Z,27.1
2019-05-12T20:35:19.544Z,27.1
2019-05-12T20:38:16.330Z,27.1
2019-05-12T20:41:20.049Z,27.1
2019-05-12T20:44:16.785Z,27.1
2019-05-12T20:47:07.444Z,27.2
2019-05-12T20:53:03.607Z,27.2
2019-05-12T20:55:58.329Z,27.1
2019-05-12T20:58:55.397Z,27.2
2019-05-12T21:01:52.651Z,27.2
2019-05-12T21:07:46.390Z,27.2
2019-05-12T21:25:28.592Z,27.3
2019-05-12T21:43:10.722Z,27.2
2019-05-12T21:46:12.219Z,27
2019-05-12T22:00:57.063Z,26.6
2019-05-12T22:09:46.777Z,26.4
2019-05-12T22:15:37.488Z,26.5
2019-05-12T22:18:34.444Z,26.5
2019-05-12T22:24:34.486Z,26.5
2019-05-12T22:33:19.505Z,26.5
2019-05-12T22:36:25.292Z,26.5
2019-05-12T22:39:14.255Z,26.4
2019-05-12T22:42:11.400Z,26.4
2019-05-12T22:45:07.629Z,26.3
2019-05-12T22:48:04.651Z,26.2
2019-05-12T22:51:05.929Z,26.3
2019-05-12T22:54:00.381Z,26.2
2019-05-12T22:56:56.900Z,26.2
2019-05-12T22:59:53.156Z,26.2
2019-05-12T23:02:49.712Z,26.2
2019-05-12T23:05:50.592Z,26.2
2019-05-12T23:08:44.907Z,26.2
2019-05-12T23:11:40.804Z,26.3
2019-05-12T23:20:33.245Z,26.4
2019-05-12T23:26:26.226Z,26.4
2019-05-12T23:29:26.599Z,26.4
2019-05-12T23:35:16.619Z,26.4
2019-05-12T23:38:16.637Z,26.4
2019-05-12T23:41:10.809Z,26.4
2019-05-12T23:44:07.546Z,26.4
2019-05-12T23:47:04.761Z,26.5
2019-05-12T23:50:03.819Z,26.5
2019-05-12T23:52:58.834Z,26.5
2019-05-12T23:55:55.586Z,26.6
2019-05-12T23:58:53.789Z,26.6
